Time;durP1;ratioP1;P1;durP2;ratioP2;P2;SDS_P1;SDS_P2;PMS_P1;PMS_P2;Temp;Humidity;BMP_temperature;BMP_pressure;BME280_temperature;BME280_humidity;BME280_pressure;Samples;Min_cycle;Max_cycle;Signal;HPM_P1;HPM_P2
2022/11/22 08:44:44;;;;;;;;;;;;;;;;;;5892748;23;21014;-78
2022/11/22 09:15:26;;;;;;;;;;;;;;;;;;4956369;28;19917;-80
2022/11/22 09:17:51;;;;;;;;;;;;;;;;;;4975250;28;19914;-80
2022/11/22 09:20:16;;;;;;;;;;;;;;;;;;4975669;28;19918;-81
2022/11/22 09:22:41;;;;;;;;;;;;;;;;;;4994420;28;19914;-78
2022/11/22 09:25:07;;;;;;;;;;;;;;;;;;4994675;28;19952;-78
2022/11/22 09:27:33;;;;;;;;;;;;;;;;;;4994481;28;20017;-80
2022/11/22 09:29:58;;;;;;;;;;;;;;;;;;4994535;28;19992;-82
2022/11/22 09:32:24;;;;;;;;;;;;;;;;;;4994213;28;19914;-81
2022/11/22 09:34:49;;;;;;;;;;;;;;;;;;4994393;28;19961;-81
2022/11/22 09:37:17;;;;;;;;;;;;;;;;;;4994487;28;19914;-81
2022/11/22 09:39:43;;;;;;;;;;;;;;;;;;4994648;28;19913;-82
2022/11/22 09:42:17;;;;;;;;;;;;;;;;;;4994068;28;20371;-81
2022/11/22 09:45:01;;;;;;;;;;;;;;;;;;4994238;28;19913;-82
2022/11/22 09:47:26;;;;;;;;;;;;;;;;;;4994234;28;19966;-84
2022/11/22 09:50:01;;;;;;;;;;;;;;;;;;4976827;28;20356;-82
2022/11/22 09:52:29;;;;;;;;;;;;;;;;;;4994318;28;19917;-83
2022/11/22 09:54:56;;;;;;;;;;;;;;;;;;4994217;28;20379;-83
2022/11/22 09:57:26;;;;;;;;;;;;;;;;;;4994063;28;19914;-82
2022/11/22 10:00:05;;;;;;;;;;;;;;;;;;4994126;28;19961;-82
2022/11/22 10:02:38;;;;;;;;;;;;;;;;;;4994000;28;19913;-84
2022/11/22 10:05:11;;;;;;;;;;;;;;;;;;4976870;28;19913;-79
2022/11/22 10:07:39;;;;;;;;;;;;;;;;;;4994001;28;20292;-82
2022/11/22 10:10:10;;;;;;;;;;;;;;;;;;4993899;28;19914;-82
2022/11/22 10:12:51;;;;;;;;;;;;;;;;;;4976249;28;19917;-80
2022/11/22 10:15:29;;;;;;;;;;;;;;;;;;4976512;28;19921;-80
2022/11/22 10:17:54;;;;;;;;;;;;;;;;;;4993916;28;19921;-80
2022/11/22 10:20:38;;;;;;;;;;;;;;;;;;4993816;28;19910;-81
2022/11/22 10:23:06;;;;;;;;;;;;;;;;;;4995759;28;19918;-81
2022/11/22 10:25:38;;;;;;;;;;;;;;;;;;4997566;28;19914;-79
2022/11/22 10:28:17;;;;;;;;;;;;;;;;;;4997365;28;19914;-82
2022/11/22 10:30:47;;;;;;;;;;;;;;;;;;4997471;28;19910;-81
2022/11/22 10:33:18;;;;;;;;;;;;;;;;;;4997684;28;20025;-81
2022/11/22 10:36:02;;;;;;;;;;;;;;;;;;4997594;28;19993;-81
2022/11/22 10:38:39;;;;;;;;;;;;;;;;;;4997680;28;19913;-81
2022/11/22 10:41:13;;;;;;;;;;;;;;;;;;4997290;28;19953;-81
2022/11/22 10:43:45;;;;;;;;;;;;;;;;;;4997270;28;19921;-82
2022/11/22 10:46:19;;;;;;;;;;;;;;;;;;4997059;28;19914;-82
2022/11/22 10:48:59;;;;;;;;;;;;;;;;;;4997386;28;19914;-83
2022/11/22 10:51:34;;;;;;;;;;;;;;;;;;4979500;28;20360;-83
2022/11/22 10:54:16;;;;;;;;;;;;;;;;;;4997110;28;19914;-83
2022/11/22 10:56:49;;;;;;;;;;;;;;;;;;4998988;28;19970;-82
2022/11/22 10:59:38;;;;;;;;;;;;;;;;;;4979618;28;20329;-85
2022/11/22 11:02:12;;;;;;;;;;;;;;;;;;4934748;28;19953;-85
2022/11/22 11:04:38;;;;;;;;;;;;;;;;;;4996848;28;19921;-82
2022/11/22 11:07:05;;;;;;;;;;;;;;;;;;4996651;28;19914;-81
2022/11/22 11:09:42;;;;;;;;;;;;;;;;;;4979239;28;19914;-81
2022/11/22 11:12:33;;;;;;;;;;;;;;;;;;4996548;28;19924;-83
2022/11/22 11:15:02;;;;;;;;;;;;;;;;;;4974745;28;19918;-83
2022/11/22 11:17:30;;;;;;;;;;;;;;;;;;4996800;28;19924;-81
2022/11/22 11:19:58;;;;;;;;;;;;;;;;;;4996686;28;19914;-87
2022/11/22 11:22:24;;;;;;;;;;;;;;;;;;4996663;28;19929;-81
2022/11/22 11:24:50;;;;;;;;;;;;;;;;;;4996401;28;19914;-80
2022/11/22 11:27:17;;;;;;;;;;;;;;;;;;4978600;28;20411;-81
2022/11/22 11:29:57;;;;;;;;;;;;;;;;;;4996219;28;19914;-82
2022/11/22 11:32:23;;;;;;;;;;;;;;;;;;4996922;28;19933;-80
2022/11/22 11:35:03;;;;;;;;;;;;;;;;;;4995413;28;20281;-79
2022/11/22 11:37:37;;;;;;;;;;;;;;;;;;4996276;28;19918;-79
2022/11/22 11:40:03;;;;;;;;;;;;;;;;;;4996030;28;19914;-80
2022/11/22 11:42:30;;;;;;;;;;;;;;;;;;4996034;28;20424;-80
2022/11/22 11:45:15;;;;;;;;;;;;;;;;;;4996012;28;19914;-80
2022/11/22 11:47:41;;;;;;;;;;;;;;;;;;4978665;28;20364;-82
2022/11/22 11:50:16;;;;;;;;;;;;;;;;;;4996025;28;19917;-87
2022/11/22 11:52:47;;;;;;;;;;;;;;;;;;4996230;28;19913;-83
2022/11/22 11:55:15;;;;;;;;;;;;;;;;;;4995970;28;19921;-82
2022/11/22 11:57:42;;;;;;;;;;;;;;;;;;4995866;28;20272;-82
2022/11/22 12:00:18;;;;;;;;;;;;;;;;;;4995679;28;19913;-82
2022/11/22 12:02:49;;;;;;;;;;;;;;;;;;4995892;28;19992;-81
2022/11/22 12:05:14;;;;;;;;;;;;;;;;;;4995860;28;19913;-82
2022/11/22 12:07:43;;;;;;;;;;;;;;;;;;4995420;28;19920;-82
2022/11/22 12:10:23;;;;;;;;;;;;;;;;;;4978144;28;20284;-81
2022/11/22 12:12:51;;;;;;;;;;;;;;;;;;4995500;28;20000;-82
2022/11/22 12:15:26;;;;;;;;;;;;;;;;;;4995120;28;19922;-82
2022/11/22 12:18:03;;;;;;;;;;;;;;;;;;4995436;28;19917;-81
2022/11/22 12:20:47;;;;;;;;;;;;;;;;;;4995203;28;19917;-82
2022/11/22 12:23:15;;;;;;;;;;;;;;;;;;4995307;28;19945;-82
2022/11/22 12:25:42;;;;;;;;;;;;;;;;;;4995173;28;19913;-82
2022/11/22 12:28:18;;;;;;;;;;;;;;;;;;4995229;28;19914;-82
2022/11/22 12:30:44;;;;;;;;;;;;;;;;;;4995127;28;19914;-82
2022/11/22 12:33:16;;;;;;;;;;;;;;;;;;4995136;28;20000;-82
2022/11/22 12:35:42;;;;;;;;;;;;;;;;;;4995033;28;19913;-82
2022/11/22 12:38:17;;;;;;;;;;;;;;;;;;4995133;28;19913;-82
2022/11/22 12:40:44;;;;;;;;;;;;;;;;;;4977463;28;19976;-82
2022/11/22 12:43:19;;;;;;;;;;;;;;;;;;4994857;28;19917;-82
2022/11/22 12:45:50;;;;;;;;;;;;;;;;;;4994898;28;19953;-82
2022/11/22 18:15:22;;;;;;;;;;;;;;;;;;5365030;23;19922;-88
2022/11/22 18:17:48;;;;;;;;;;;;;;;;;;4965478;28;19918;-88
2022/11/22 18:20:13;;;;;;;;;;;;;;;;;;4978807;28;19920;-84
2022/11/22 18:22:38;;;;;;;;;;;;;;;;;;4984626;28;19960;-83
2022/11/22 18:25:04;;;;;;;;;;;;;;;;;;4997446;28;19914;-83
2022/11/22 18:27:29;;;;;;;;;;;;;;;;;;4997646;28;19936;-83
2022/11/22 18:29:55;;;;;;;;;;;;;;;;;;4997383;28;19914;-84
2022/11/22 18:32:20;;;;;;;;;;;;;;;;;;4997618;28;19984;-84
2022/11/22 18:34:45;;;;;;;;;;;;;;;;;;4981419;28;19960;-86
2022/11/22 18:37:11;;;;;;;;;;;;;;;;;;4988327;28;19921;-82
2022/11/22 18:39:37;;;;;;;;;;;;;;;;;;4982233;28;19924;-83
2022/11/22 18:42:03;;;;;;;;;;;;;;;;;;4997158;28;20004;-85
2022/11/22 18:44:28;;;;;;;;;;;;;;;;;;4997007;28;20451;-80
2022/11/22 18:46:53;;;;;;;;;;;;;;;;;;4997004;28;20060;-81
2022/11/22 18:49:19;;;;;;;;;;;;;;;;;;4997164;28;19975;-79
2022/11/22 18:51:44;;;;;;;;;;;;;;;;;;4997151;28;20285;-79
2022/11/22 18:54:10;;;;;;;;;;;;;;;;;;4978259;28;20372;-79
2022/11/22 18:56:38;;;;;;;;;;;;;;;;;;4977418;28;19914;-79
2022/11/22 18:59:05;;;;;;;;;;;;;;;;;;4977212;28;19922;-81
2022/11/22 19:01:30;;;;;;;;;;;;;;;;;;4977349;28;20276;-83
2022/11/22 19:03:56;;;;;;;;;;;;;;;;;;4977639;28;20012;-83
2022/11/22 19:06:22;;;;;;;;;;;;;;;;;;4977679;28;19920;-81
2022/11/22 19:08:47;;;;;;;;;;;;;;;;;;4977340;28;19914;-85
2022/11/22 19:11:14;;;;;;;;;;;;;;;;;;4978259;28;19960;-82
2022/11/22 19:13:40;;;;;;;;;;;;;;;;;;4996358;28;19914;-82
2022/11/22 19:16:07;;;;;;;;;;;;;;;;;;4996461;28;19917;-82
2022/11/22 19:18:38;;;;;;;;;;;;;;;;;;4996405;28;19914;-83
2022/11/22 19:21:05;;;;;;;;;;;;;;;;;;4996413;28;19945;-82
2022/11/22 19:23:30;;;;;;;;;;;;;;;;;;4996311;28;19976;-82
2022/11/22 19:25:56;;;;;;;;;;;;;;;;;;4996408;28;19915;-86
2022/11/22 19:28:27;;;;;;;;;;;;;;;;;;4997239;28;19913;-84
2022/11/22 19:30:53;;;;;;;;;;;;;;;;;;4996465;28;19914;-85
2022/11/22 19:33:18;;;;;;;;;;;;;;;;;;4996714;28;19921;-84
2022/11/22 19:35:53;;;;;;;;;;;;;;;;;;4996685;28;19914;-84
2022/11/22 19:38:19;;;;;;;;;;;;;;;;;;4978596;28;20384;-85
2022/11/22 19:40:44;;;;;;;;;;;;;;;;;;4996044;28;19914;-84
2022/11/22 19:43:09;;;;;;;;;;;;;;;;;;4995364;28;19914;-84
2022/11/22 19:45:35;;;;;;;;;;;;;;;;;;4976418;28;19914;-84
2022/11/22 19:48:00;;;;;;;;;;;;;;;;;;4976767;28;19961;-87
2022/11/22 19:50:25;;;;;;;;;;;;;;;;;;4976845;28;20009;-86
2022/11/22 19:52:51;;;;;;;;;;;;;;;;;;4976570;28;19985;-84
2022/11/22 19:55:16;;;;;;;;;;;;;;;;;;4975699;28;20436;-87
2022/11/22 19:57:41;;;;;;;;;;;;;;;;;;4976463;28;19914;-88
2022/11/22 20:00:08;;;;;;;;;;;;;;;;;;4976630;28;19925;-84
2022/11/22 20:02:34;;;;;;;;;;;;;;;;;;4984300;28;19920;-87
2022/11/22 20:04:59;;;;;;;;;;;;;;;;;;4996146;28;20008;-89
2022/11/22 20:07:25;;;;;;;;;;;;;;;;;;4996108;28;19913;-86
2022/11/22 20:09:50;;;;;;;;;;;;;;;;;;4996123;28;19956;-87
2022/11/22 20:12:15;;;;;;;;;;;;;;;;;;4995977;28;20348;-88
2022/11/22 20:14:41;;;;;;;;;;;;;;;;;;4996064;28;19914;-88
2022/11/22 20:17:06;;;;;;;;;;;;;;;;;;4995738;28;19928;-87
2022/11/22 20:19:31;;;;;;;;;;;;;;;;;;4996160;28;19997;-87
2022/11/22 20:21:56;;;;;;;;;;;;;;;;;;4995879;28;19920;-84
2022/11/22 20:24:22;;;;;;;;;;;;;;;;;;4995781;28;19913;-85
2022/11/22 20:26:47;;;;;;;;;;;;;;;;;;4995581;28;19913;-87
2022/11/22 20:29:13;;;;;;;;;;;;;;;;;;4990665;28;20344;-85
2022/11/22 20:31:40;;;;;;;;;;;;;;;;;;4993938;28;19917;-84
2022/11/22 20:34:05;;;;;;;;;;;;;;;;;;4982509;28;19961;-87
2022/11/22 20:36:31;;;;;;;;;;;;;;;;;;4975811;28;19960;-85
2022/11/22 20:38:57;;;;;;;;;;;;;;;;;;4992629;28;19913;-85
2022/11/22 20:41:24;;;;;;;;;;;;;;;;;;4994966;28;19914;-83
2022/11/22 20:43:49;;;;;;;;;;;;;;;;;;4994826;28;19913;-84
2022/11/22 20:46:16;;;;;;;;;;;;;;;;;;4995154;28;20338;-84
2022/11/22 20:48:42;;;;;;;;;;;;;;;;;;4994910;28;20048;-83
2022/11/22 20:51:08;;;;;;;;;;;;;;;;;;4994976;28;19917;-84
2022/11/22 20:53:34;;;;;;;;;;;;;;;;;;4994800;28;20288;-85
2022/11/22 20:56:00;;;;;;;;;;;;;;;;;;4994675;28;20038;-85
2022/11/22 20:58:25;;;;;;;;;;;;;;;;;;4994655;28;19920;-83
2022/11/22 21:00:51;;;;;;;;;;;;;;;;;;4994708;28;19914;-83
2022/11/22 21:03:16;;;;;;;;;;;;;;;;;;4987713;28;19925;-83
2022/11/22 21:05:46;;;;;;;;;;;;;;;;;;4975154;28;19941;-82
2022/11/22 21:08:11;;;;;;;;;;;;;;;;;;4974229;28;20357;-83
2022/11/22 21:10:37;;;;;;;;;;;;;;;;;;4975094;28;19914;-83
2022/11/22 21:13:02;;;;;;;;;;;;;;;;;;4957994;28;19922;-82
2022/11/22 21:15:27;;;;;;;;;;;;;;;;;;4957770;28;20013;-82
2022/11/22 21:17:53;;;;;;;;;;;;;;;;;;4974906;28;19921;-83
2022/11/22 21:20:19;;;;;;;;;;;;;;;;;;4975143;28;19914;-82
2022/11/22 21:22:44;;;;;;;;;;;;;;;;;;4975065;28;20332;-82
2022/11/22 21:25:09;;;;;;;;;;;;;;;;;;4974930;28;19914;-83
2022/11/22 21:27:35;;;;;;;;;;;;;;;;;;4975034;28;19921;-83
2022/11/22 21:30:00;;;;;;;;;;;;;;;;;;4957875;28;19925;-83
2022/11/22 21:32:26;;;;;;;;;;;;;;;;;;4974946;28;20362;-82
2022/11/22 21:34:51;;;;;;;;;;;;;;;;;;4957447;28;19984;-82
2022/11/22 21:37:16;;;;;;;;;;;;;;;;;;4980569;28;19924;-82
2022/11/22 21:39:42;;;;;;;;;;;;;;;;;;4994537;28;20004;-84
2022/11/22 21:42:07;;;;;;;;;;;;;;;;;;4994145;28;20008;-82
2022/11/22 21:44:33;;;;;;;;;;;;;;;;;;4994292;28;20349;-82
2022/11/22 21:46:58;;;;;;;;;;;;;;;;;;4994348;28;20377;-82
2022/11/22 21:49:24;;;;;;;;;;;;;;;;;;4994259;28;19989;-82
2022/11/22 21:51:49;;;;;;;;;;;;;;;;;;4994013;28;19913;-83
2022/11/22 21:54:14;;;;;;;;;;;;;;;;;;4994032;28;19961;-84
2022/11/22 21:56:40;;;;;;;;;;;;;;;;;;4994129;28;20000;-84
2022/11/22 21:59:05;;;;;;;;;;;;;;;;;;4994324;28;20291;-84
2022/11/22 22:01:30;;;;;;;;;;;;;;;;;;4994093;28;19914;-84
2022/11/22 22:03:56;;;;;;;;;;;;;;;;;;4994086;28;19980;-83
2022/11/22 22:06:21;;;;;;;;;;;;;;;;;;4994155;28;19913;-84
2022/11/22 22:08:47;;;;;;;;;;;;;;;;;;4993958;28;20029;-83
2022/11/22 22:11:12;;;;;;;;;;;;;;;;;;4993920;28;20284;-83
2022/11/22 22:13:37;;;;;;;;;;;;;;;;;;4993887;28;19972;-84
2022/11/22 22:16:05;;;;;;;;;;;;;;;;;;4994110;28;20008;-82
2022/11/22 22:21:23;;;;;;;;;;;;;;;;;;5955000;23;21028;-83
2022/11/22 22:23:49;;;;;;;;;;;;;;;;;;4975816;28;19928;-84
